Time;durP1;ratioP1;P1;durP2;ratioP2;P2;SDS_P1;SDS_P2;PMS_P1;PMS_P2;Temp;Humidity;BMP_temperature;BMP_pressure;BME280_temperature;BME280_humidity;BME280_pressure;Samples;Min_cycle;Max_cycle;Signal;HPM_P1;HPM_P2
2023/09/10 00:02:21;;;;;;;14.80;7.30;;;23.80;55.20;;;;;;4962349;28;20059;-62
2023/09/10 00:04:49;;;;;;;13.77;7.55;;;23.80;55.20;;;;;;4960073;28;20058;-62
2023/09/10 00:07:16;;;;;;;18.77;8.38;;;23.80;55.30;;;;;;4958659;28;20059;-62
2023/09/10 00:09:43;;;;;;;13.20;7.45;;;23.80;55.40;;;;;;4961498;28;20055;-63
2023/09/10 00:12:11;;;;;;;12.68;7.22;;;23.70;55.40;;;;;;4960717;28;20051;-62
2023/09/10 00:14:38;;;;;;;12.32;7.15;;;23.70;55.40;;;;;;4961101;28;20073;-62
2023/09/10 00:17:07;;;;;;;12.38;7.13;;;23.70;55.50;;;;;;4959232;28;20521;-62
2023/09/10 00:19:34;;;;;;;13.50;7.78;;;23.70;55.60;;;;;;4960619;28;20055;-62
2023/09/10 00:22:01;;;;;;;14.73;8.38;;;23.70;55.60;;;;;;4957675;28;20062;-62
2023/09/10 00:24:28;;;;;;;13.05;6.95;;;23.70;55.70;;;;;;4960533;28;20058;-63
2023/09/10 00:26:56;;;;;;;13.90;7.35;;;23.60;55.70;;;;;;4958858;28;20082;-63
2023/09/10 00:29:23;;;;;;;12.75;7.18;;;23.60;55.70;;;;;;4961616;28;20058;-62
2023/09/10 00:31:50;;;;;;;16.60;7.28;;;23.60;55.70;;;;;;4957973;28;20055;-62
2023/09/10 00:34:19;;;;;;;13.80;7.57;;;23.60;55.80;;;;;;4958796;28;20419;-63
2023/09/10 00:36:46;;;;;;;14.02;7.82;;;23.60;55.80;;;;;;4957014;28;20066;-62
2023/09/10 00:39:14;;;;;;;17.38;8.05;;;23.50;55.80;;;;;;4959681;28;20074;-61
2023/09/10 00:41:41;;;;;;;14.43;8.00;;;23.50;55.90;;;;;;4962402;28;20051;-62
2023/09/10 00:44:08;;;;;;;13.10;7.25;;;23.50;55.90;;;;;;4960496;28;20483;-63
2023/09/10 00:46:36;;;;;;;14.73;8.38;;;23.50;55.90;;;;;;4956734;28;20057;-61
2023/09/10 00:49:03;;;;;;;15.02;8.70;;;23.40;55.90;;;;;;4960558;28;20054;-62
2023/09/10 00:51:32;;;;;;;11.07;7.43;;;23.40;56.00;;;;;;4958656;28;20050;-63
2023/09/10 00:54:00;;;;;;;11.93;7.60;;;23.40;56.10;;;;;;4960703;28;20533;-63
2023/09/10 00:56:27;;;;;;;14.20;8.35;;;23.40;56.10;;;;;;4960339;28;20054;-63
2023/09/10 00:58:55;;;;;;;15.05;8.48;;;23.40;56.20;;;;;;4960350;28;21642;-62
2023/09/10 01:03:56;;;;;;;12.95;8.13;;;23.30;56.30;;;;;;4994828;28;20058;-59
2023/09/10 01:06:24;;;;;;;20.80;8.32;;;23.30;56.30;;;;;;4996039;28;20489;-58
2023/09/10 01:08:53;;;;;;;16.48;8.45;;;23.30;56.30;;;;;;5002380;28;20065;-57
2023/09/10 01:11:28;;;;;;;14.50;7.68;;;23.30;56.40;;;;;;5001071;28;20053;-57
2023/09/10 01:14:07;;;;;;;15.02;8.82;;;23.30;56.50;;;;;;5000101;28;20076;-57
2023/09/10 01:16:48;;;;;;;14.57;8.30;;;23.20;56.50;;;;;;5000257;28;20052;-56
2023/09/10 01:19:38;;;;;;;17.92;8.73;;;23.20;56.60;;;;;;5001103;28;20054;-57
2023/09/10 01:22:13;;;;;;;15.68;8.38;;;23.20;56.70;;;;;;4999555;28;20436;-56
2023/09/10 01:24:48;;;;;;;14.30;8.05;;;23.20;56.70;;;;;;5003085;28;20413;-57
2023/09/10 01:27:16;;;;;;;13.10;7.70;;;23.10;56.70;;;;;;5001196;28;20057;-57
2023/09/10 01:29:43;;;;;;;15.18;8.10;;;23.10;56.70;;;;;;5002859;28;20053;-58
2023/09/10 01:32:17;;;;;;;13.10;7.82;;;23.10;56.70;;;;;;4997470;28;20062;-57
2023/09/10 01:34:54;;;;;;;15.52;7.88;;;23.10;56.80;;;;;;5000413;28;20421;-57
2023/09/10 01:37:27;;;;;;;18.17;9.05;;;23.10;56.90;;;;;;4998558;28;20061;-55
2023/09/10 01:39:59;;;;;;;13.73;8.27;;;23.00;56.80;;;;;;5002990;28;20065;-57
2023/09/10 01:42:26;;;;;;;17.55;8.98;;;23.10;56.90;;;;;;4999833;28;20057;-56
2023/09/10 01:44:54;;;;;;;13.20;8.00;;;23.00;56.80;;;;;;5000449;28;20062;-58
2023/09/10 01:47:22;;;;;;;13.25;8.27;;;23.00;56.90;;;;;;5001649;28;20076;-57
2023/09/10 01:49:49;;;;;;;16.33;8.90;;;23.00;57.00;;;;;;5001195;28;20092;-57
2023/09/10 01:52:16;;;;;;;16.88;8.80;;;23.00;57.00;;;;;;5000185;28;20049;-57
2023/09/10 01:54:44;;;;;;;13.38;8.02;;;23.00;57.00;;;;;;5000036;28;20417;-57
2023/09/10 01:57:12;;;;;;;11.98;7.90;;;22.90;57.00;;;;;;5000657;28;20053;-57
2023/09/10 01:59:39;;;;;;;11.07;7.22;;;22.90;57.10;;;;;;5002167;28;20418;-56
2023/09/10 02:02:07;;;;;;;15.30;8.23;;;22.90;57.10;;;;;;5001851;28;20058;-57
2023/09/10 02:04:34;;;;;;;18.50;8.77;;;22.90;57.10;;;;;;5000910;28;20397;-57
2023/09/10 02:07:02;;;;;;;15.60;8.15;;;22.90;57.20;;;;;;4997974;28;20413;-57
2023/09/10 02:09:29;;;;;;;15.82;7.70;;;22.80;57.20;;;;;;5002590;28;20399;-57
2023/09/10 02:11:56;;;;;;;11.10;8.07;;;22.80;57.20;;;;;;5001585;28;20050;-56
2023/09/10 02:14:25;;;;;;;14.95;8.27;;;22.80;57.20;;;;;;5000147;28;20049;-57
2023/09/10 02:16:52;;;;;;;17.85;8.15;;;22.80;57.20;;;;;;4998729;28;20047;-57
2023/09/10 02:19:19;;;;;;;10.98;7.32;;;22.80;57.30;;;;;;5000534;28;20065;-57
2023/09/10 02:21:47;;;;;;;13.77;7.57;;;22.80;57.30;;;;;;4997671;28;20050;-57
2023/09/10 02:24:14;;;;;;;13.63;7.63;;;22.70;57.30;;;;;;4998456;28;20053;-57
2023/09/10 02:26:41;;;;;;;14.85;8.15;;;22.70;57.30;;;;;;5001309;28;20061;-57
2023/09/10 02:29:08;;;;;;;13.48;7.80;;;22.70;57.30;;;;;;5001275;28;20054;-57
2023/09/10 02:31:37;;;;;;;17.45;7.93;;;22.70;57.40;;;;;;5000321;28;20064;-57
2023/09/10 02:34:04;;;;;;;15.60;7.70;;;22.70;57.40;;;;;;4997670;28;20077;-58
2023/09/10 02:36:31;;;;;;;16.35;7.97;;;22.60;57.30;;;;;;4998086;28;20073;-57
2023/09/10 02:38:59;;;;;;;12.93;7.38;;;22.70;57.40;;;;;;4999684;28;20678;-57
2023/09/10 02:41:26;;;;;;;11.60;7.30;;;22.60;57.40;;;;;;5000720;28;20052;-57
2023/09/10 02:43:53;;;;;;;14.65;8.38;;;22.60;57.40;;;;;;4999054;28;20065;-57
2023/09/10 02:46:20;;;;;;;14.10;7.18;;;22.60;57.40;;;;;;4999153;28;20061;-58
2023/09/10 02:48:49;;;;;;;15.57;7.35;;;22.60;57.40;;;;;;4996265;28;20057;-57
2023/09/10 02:51:16;;;;;;;12.15;6.80;;;22.60;57.50;;;;;;4998690;28;20061;-57
2023/09/10 02:53:43;;;;;;;15.85;7.35;;;22.60;57.50;;;;;;4999524;28;20497;-57
2023/09/10 02:56:11;;;;;;;12.48;7.05;;;22.50;57.40;;;;;;4998192;28;20416;-57
2023/09/10 02:58:39;;;;;;;11.10;7.13;;;22.50;57.50;;;;;;5001310;28;20496;-55
2023/09/10 03:01:06;;;;;;;16.38;8.25;;;22.50;57.50;;;;;;4999403;28;20052;-57
2023/09/10 03:03:34;;;;;;;14.32;8.25;;;22.50;57.50;;;;;;4999201;28;20069;-57
2023/09/10 03:06:03;;;;;;;13.43;7.88;;;22.50;57.50;;;;;;4997091;28;20046;-56
2023/09/10 03:08:35;;;;;;;14.88;7.15;;;22.50;57.60;;;;;;4997196;28;20049;-57
2023/09/10 03:11:04;;;;;;;12.20;7.30;;;22.40;57.50;;;;;;4996767;28;20054;-57
2023/09/10 03:13:31;;;;;;;11.15;7.10;;;22.40;57.60;;;;;;4996379;28;20080;-57
2023/09/10 03:15:58;;;;;;;14.13;7.47;;;22.40;57.60;;;;;;4992988;28;20065;-58
2023/09/10 03:18:25;;;;;;;14.68;6.97;;;22.40;57.60;;;;;;4995938;28;20056;-57
2023/09/10 03:20:53;;;;;;;12.02;7.05;;;22.40;57.70;;;;;;4995329;28;20060;-57
2023/09/10 03:23:22;;;;;;;10.80;6.85;;;22.40;57.70;;;;;;4995285;28;20420;-57
2023/09/10 03:25:49;;;;;;;14.45;6.70;;;22.30;57.80;;;;;;4996426;28;20057;-57
2023/09/10 03:28:16;;;;;;;10.10;6.50;;;22.30;57.70;;;;;;4991584;28;20050;-58
2023/09/10 03:30:43;;;;;;;12.40;6.70;;;22.30;58.30;;;;;;4993833;28;20050;-58
2023/09/10 03:33:11;;;;;;;12.82;6.40;;;22.30;57.80;;;;;;4996791;28;20056;-57
2023/09/10 03:35:38;;;;;;;14.63;7.00;;;22.30;57.90;;;;;;4995037;28;20073;-58
2023/09/10 03:38:05;;;;;;;13.10;7.13;;;22.30;57.90;;;;;;4994282;28;20402;-58
2023/09/10 03:40:34;;;;;;;14.52;7.20;;;22.20;57.90;;;;;;4995942;28;20045;-56
2023/09/10 03:43:02;;;;;;;11.32;6.95;;;22.30;58.40;;;;;;4980351;28;20081;-57
2023/09/10 03:45:29;;;;;;;23.83;7.40;;;22.30;57.90;;;;;;4999585;28;20050;-57
2023/09/10 03:47:57;;;;;;;14.05;7.32;;;22.20;57.90;;;;;;4999809;28;20054;-57
2023/09/10 03:50:24;;;;;;;19.92;8.52;;;22.20;57.90;;;;;;4993868;28;20432;-58
2023/09/10 03:52:52;;;;;;;12.00;6.43;;;22.20;57.90;;;;;;4996991;28;20064;-57
2023/09/10 03:55:19;;;;;;;11.15;6.65;;;22.20;58.30;;;;;;4998655;28;20045;-57
2023/09/10 03:57:47;;;;;;;12.45;6.68;;;22.20;58.00;;;;;;5001275;28;20057;-57
2023/09/10 04:00:15;;;;;;;16.00;7.45;;;22.10;57.90;;;;;;4999015;28;20517;-57
2023/09/10 04:02:42;;;;;;;12.20;6.95;;;22.10;57.90;;;;;;4998226;28;20505;-57
2023/09/10 04:05:10;;;;;;;12.70;7.18;;;22.10;58.00;;;;;;4996478;28;20085;-58
2023/09/10 04:07:38;;;;;;;10.55;7.13;;;22.10;58.00;;;;;;4997844;28;20592;-57
2023/09/10 04:10:06;;;;;;;10.98;7.13;;;22.10;58.00;;;;;;4998752;28;20502;-57
2023/09/10 04:12:34;;;;;;;14.18;6.97;;;22.10;58.00;;;;;;4995662;28;20056;-58
2023/09/10 04:15:03;;;;;;;14.48;6.90;;;22.10;58.00;;;;;;4994690;28;20046;-56
2023/09/10 04:17:30;;;;;;;13.95;7.45;;;22.10;58.00;;;;;;4993354;28;20056;-57
2023/09/10 04:19:57;;;;;;;14.48;7.00;;;22.10;58.00;;;;;;4995745;28;20498;-57
2023/09/10 04:22:27;;;;;;;10.45;6.53;;;22.00;58.00;;;;;;4995028;28;20050;-57
2023/09/10 04:24:54;;;;;;;13.68;6.82;;;22.00;58.00;;;;;;4993265;28;20506;-57
2023/09/10 04:27:21;;;;;;;12.60;6.68;;;22.00;58.00;;;;;;4995795;28;20058;-57
2023/09/10 04:29:48;;;;;;;12.40;7.13;;;22.00;58.10;;;;;;4997908;28;21997;-56
2023/09/10 04:32:17;;;;;;;11.65;6.68;;;22.00;58.10;;;;;;4997223;28;20053;-56
2023/09/10 04:34:44;;;;;;;10.40;6.85;;;21.90;58.00;;;;;;4992531;28;20054;-56
2023/09/10 04:37:11;;;;;;;12.25;6.18;;;21.90;58.00;;;;;;4995304;28;20061;-56
2023/09/10 04:39:39;;;;;;;17.08;7.80;;;21.90;58.10;;;;;;4995543;28;20058;-56
2023/09/10 04:42:06;;;;;;;13.02;7.68;;;21.90;58.00;;;;;;5001267;28;20058;-57
2023/09/10 04:44:34;;;;;;;13.10;6.63;;;21.90;58.10;;;;;;4998516;28;20068;-56
2023/09/10 04:47:03;;;;;;;12.15;6.63;;;21.90;58.10;;;;;;4999847;28;20085;-57
2023/09/10 04:49:32;;;;;;;15.23;6.60;;;21.90;58.10;;;;;;5000818;28;20056;-56
2023/09/10 04:51:59;;;;;;;14.15;7.00;;;21.90;58.20;;;;;;4998543;28;20054;-58
2023/09/10 04:54:26;;;;;;;14.50;7.03;;;21.80;58.10;;;;;;5000732;28;20076;-57
2023/09/10 04:56:54;;;;;;;14.82;7.05;;;21.80;58.20;;;;;;5001627;28;20088;-58
2023/09/10 04:59:21;;;;;;;10.25;6.18;;;21.80;58.20;;;;;;5002860;28;20521;-56
2023/09/10 05:01:48;;;;;;;14.48;6.88;;;21.80;58.20;;;;;;5002232;28;20046;-57
2023/09/10 05:04:15;;;;;;;13.88;6.93;;;21.80;58.20;;;;;;4999804;28;20409;-56
2023/09/10 05:06:44;;;;;;;17.25;8.68;;;21.80;58.30;;;;;;4998598;28;20057;-58
2023/09/10 05:12:33;;;;;;;11.85;7.70;;;21.80;58.40;;;;;;5000501;28;20049;-58
2023/09/10 05:15:01;;;;;;;12.75;6.90;;;21.70;58.20;;;;;;5001972;28;20050;-58
2023/09/10 05:17:28;;;;;;;16.25;7.38;;;21.70;58.30;;;;;;5001309;28;20057;-58
2023/09/10 05:19:55;;;;;;;11.82;6.68;;;21.70;58.40;;;;;;5000618;28;20054;-58
2023/09/10 05:22:23;;;;;;;13.20;7.00;;;21.70;58.40;;;;;;4972959;28;20057;-56
2023/09/10 05:24:51;;;;;;;14.10;7.13;;;21.70;58.50;;;;;;4994562;28;20417;-56
2023/09/10 05:27:18;;;;;;;13.43;7.78;;;21.70;58.50;;;;;;5002244;28;20485;-56
2023/09/10 05:29:46;;;;;;;15.52;7.25;;;21.70;58.50;;;;;;4998073;28;20064;-56
2023/09/10 05:32:13;;;;;;;14.50;7.55;;;21.70;58.50;;;;;;5001957;28;20521;-56
2023/09/10 05:34:40;;;;;;;12.45;6.45;;;21.60;58.60;;;;;;5000491;28;20050;-56
2023/09/10 05:37:07;;;;;;;13.82;7.55;;;21.60;58.60;;;;;;4997847;28;20053;-57
2023/09/10 05:39:36;;;;;;;13.25;8.15;;;21.60;58.70;;;;;;5001582;28;20054;-56
2023/09/10 05:42:03;;;;;;;9.77;6.88;;;21.60;58.70;;;;;;5001022;28;20057;-56
2023/09/10 05:44:31;;;;;;;14.68;7.75;;;21.60;58.70;;;;;;5002704;28;20069;-56
2023/09/10 05:46:58;;;;;;;15.75;7.32;;;21.60;58.80;;;;;;4999578;28;20069;-54
2023/09/10 05:49:26;;;;;;;22.83;9.93;;;21.60;58.80;;;;;;5001126;28;20058;-56
2023/09/10 05:51:54;;;;;;;15.73;7.88;;;21.60;58.90;;;;;;4999541;28;20061;-56
2023/09/10 05:54:21;;;;;;;13.90;7.20;;;21.60;58.90;;;;;;5001376;28;20060;-56
2023/09/10 05:56:50;;;;;;;12.52;6.60;;;21.60;59.00;;;;;;4998070;28;20058;-56
2023/09/10 05:59:17;;;;;;;12.93;7.35;;;21.70;59.10;;;;;;4998596;28;20061;-54
2023/09/10 06:01:44;;;;;;;13.75;6.68;;;21.60;59.10;;;;;;4988846;28;20692;-56
2023/09/10 06:04:11;;;;;;;19.60;7.80;;;21.70;59.20;;;;;;4993865;28;20050;-57
2023/09/10 06:06:39;;;;;;;13.82;7.15;;;21.60;59.20;;;;;;4992221;28;20806;-56
2023/09/10 06:09:21;;;;;;;14.75;6.85;;;21.70;59.20;;;;;;4994155;28;20050;-54
2023/09/10 06:11:50;;;;;;;16.55;7.15;;;21.70;59.40;;;;;;4994613;28;20054;-57
2023/09/10 06:14:17;;;;;;;14.15;7.82;;;21.70;59.30;;;;;;4995609;28;20050;-56
2023/09/10 06:16:44;;;;;;;19.50;7.10;;;21.70;59.40;;;;;;4993741;28;20050;-55
2023/09/10 06:19:12;;;;;;;15.30;6.95;;;21.70;59.40;;;;;;4997756;28;20054;-55
2023/09/10 06:21:39;;;;;;;14.05;6.68;;;21.80;59.50;;;;;;4997073;28;20620;-56
2023/09/10 06:24:06;;;;;;;14.98;7.28;;;21.80;59.60;;;;;;4996104;28;20050;-55
2023/09/10 06:26:33;;;;;;;13.05;6.20;;;21.80;59.60;;;;;;4992498;28;20065;-56
2023/09/10 06:29:02;;;;;;;15.32;7.47;;;21.80;59.60;;;;;;4995061;28;20069;-56
2023/09/10 06:31:29;;;;;;;13.00;6.68;;;21.80;59.70;;;;;;4991762;28;20050;-56
2023/09/10 06:33:56;;;;;;;13.13;6.75;;;21.90;59.70;;;;;;4995854;28;20050;-56
2023/09/10 06:36:24;;;;;;;14.30;7.65;;;21.90;59.80;;;;;;4994719;28;20057;-55
2023/09/10 06:38:51;;;;;;;15.93;7.22;;;21.90;59.80;;;;;;4996990;28;20057;-57
2023/09/10 06:41:19;;;;;;;11.10;6.22;;;22.00;59.90;;;;;;4997606;28;20050;-57
2023/09/10 06:43:46;;;;;;;12.63;7.05;;;22.00;59.90;;;;;;4995612;28;20049;-53
2023/09/10 06:46:14;;;;;;;18.73;6.63;;;22.00;59.90;;;;;;4997833;28;20061;-53
2023/09/10 06:48:42;;;;;;;12.98;6.53;;;22.00;59.90;;;;;;4997131;28;20699;-54
2023/09/10 06:51:09;;;;;;;16.98;7.20;;;22.10;60.00;;;;;;4994680;28;20054;-51
2023/09/10 06:53:36;;;;;;;12.85;6.20;;;22.10;60.00;;;;;;4993932;28;20057;-55
2023/09/10 06:56:04;;;;;;;14.57;6.20;;;22.10;60.00;;;;;;4996633;28;20068;-51
2023/09/10 06:58:31;;;;;;;18.38;7.32;;;22.20;60.20;;;;;;4997873;28;20045;-52
2023/09/10 07:01:04;;;;;;;17.13;7.38;;;22.20;60.30;;;;;;4999515;28;20405;-51
2023/09/10 07:03:35;;;;;;;15.95;6.70;;;22.20;61.20;;;;;;5000547;28;20049;-51
2023/09/10 07:06:04;;;;;;;17.60;7.45;;;22.30;60.40;;;;;;4998543;28;20057;-48
2023/09/10 07:08:31;;;;;;;20.92;7.72;;;22.30;60.30;;;;;;4997977;28;20049;-50
2023/09/10 07:10:58;;;;;;;14.63;6.55;;;22.30;60.40;;;;;;4999890;28;20505;-51
2023/09/10 07:13:26;;;;;;;14.70;7.40;;;22.40;60.40;;;;;;5000538;28;20053;-50
2023/09/10 07:15:53;;;;;;;15.52;7.57;;;22.40;60.40;;;;;;4999510;28;20064;-52
2023/09/10 07:18:20;;;;;;;17.63;6.80;;;22.50;60.50;;;;;;5000907;28;20065;-52
2023/09/10 07:20:49;;;;;;;12.73;6.32;;;22.50;60.50;;;;;;4998595;28;20413;-51
2023/09/10 07:23:16;;;;;;;15.63;7.13;;;22.60;60.70;;;;;;4997698;28;20478;-52
2023/09/10 07:25:43;;;;;;;8.80;6.00;;;22.60;60.70;;;;;;4996647;28;20512;-46
2023/09/10 07:28:10;;;;;;;15.30;6.30;;;22.70;60.70;;;;;;4999474;28;20053;-48
2023/09/10 07:30:38;;;;;;;15.75;6.47;;;22.70;60.80;;;;;;4998637;28;20422;-55
2023/09/10 07:33:05;;;;;;;15.23;7.47;;;22.70;60.70;;;;;;4998760;28;20049;-56
2023/09/10 07:35:32;;;;;;;16.90;6.55;;;22.80;60.90;;;;;;4997445;28;20054;-49
2023/09/10 07:38:01;;;;;;;22.38;7.10;;;22.80;60.80;;;;;;5000857;28;20049;-48
2023/09/10 07:40:28;;;;;;;14.18;6.43;;;22.80;60.90;;;;;;4997918;28;20054;-46
2023/09/10 07:42:58;;;;;;;10.68;5.70;;;22.90;60.80;;;;;;5001604;28;20069;-50
2023/09/10 07:45:26;;;;;;;13.45;6.60;;;23.00;60.90;;;;;;4998341;28;20045;-47
2023/09/10 07:47:53;;;;;;;13.30;5.85;;;23.00;61.00;;;;;;4997475;28;20054;-52
2023/09/10 07:50:20;;;;;;;10.63;6.15;;;23.10;61.10;;;;;;4999009;28;20497;-46
2023/09/10 07:52:47;;;;;;;9.88;5.88;;;23.10;61.10;;;;;;4994420;28;20517;-47
2023/09/10 07:55:16;;;;;;;10.77;6.00;;;23.20;61.20;;;;;;4997029;28;20062;-50
2023/09/10 07:57:44;;;;;;;14.27;7.18;;;23.20;61.20;;;;;;4998730;28;20719;-48
2023/09/10 08:00:12;;;;;;;14.60;6.47;;;23.30;61.20;;;;;;4996899;28;20053;-45
2023/09/10 08:02:40;;;;;;;17.60;7.30;;;23.30;61.20;;;;;;4996502;28;20493;-51
2023/09/10 08:05:08;;;;;;;16.52;6.53;;;23.40;61.30;;;;;;4996602;28;20050;-53
2023/09/10 08:07:35;;;;;;;20.77;7.00;;;23.40;61.30;;;;;;4995600;28;20513;-50
2023/09/10 08:10:02;;;;;;;11.27;6.15;;;23.50;61.40;;;;;;4998048;28;20072;-53
2023/09/10 08:12:31;;;;;;;12.07;6.35;;;23.60;61.50;;;;;;4996893;28;20498;-56
2023/09/10 08:14:59;;;;;;;13.43;6.55;;;23.60;61.60;;;;;;4997087;28;20145;-55
2023/09/10 08:17:27;;;;;;;10.80;6.18;;;23.70;61.60;;;;;;5000016;28;20117;-54
2023/09/10 08:19:54;;;;;;;12.65;5.93;;;23.70;61.60;;;;;;4999501;28;20054;-53
2023/09/10 08:22:21;;;;;;;11.25;6.95;;;23.80;61.60;;;;;;5001431;28;20061;-55
2023/09/10 08:24:50;;;;;;;17.85;6.22;;;23.80;61.60;;;;;;5001287;28;20054;-54
2023/09/10 08:27:17;;;;;;;16.75;7.50;;;23.80;61.50;;;;;;5000626;28;20049;-52
2023/09/10 08:29:46;;;;;;;15.18;6.90;;;23.90;61.70;;;;;;5001675;28;20049;-55
2023/09/10 08:32:13;;;;;;;14.90;7.68;;;24.00;61.60;;;;;;4998653;28;20069;-54
2023/09/10 08:34:40;;;;;;;15.88;6.70;;;24.00;61.50;;;;;;5000098;28;20054;-54
2023/09/10 08:37:11;;;;;;;14.13;7.03;;;24.10;61.60;;;;;;5000171;28;20485;-53
2023/09/10 08:39:38;;;;;;;14.80;7.20;;;24.10;61.60;;;;;;5002755;28;20054;-55
2023/09/10 08:42:13;;;;;;;12.05;6.90;;;24.20;61.60;;;;;;4998833;28;20069;-54
2023/09/10 08:44:43;;;;;;;14.55;6.88;;;24.30;61.60;;;;;;5003071;28;20084;-54
2023/09/10 08:47:15;;;;;;;12.68;6.68;;;24.30;61.50;;;;;;4999550;28;20057;-53
2023/09/10 08:49:47;;;;;;;14.68;6.68;;;24.40;61.50;;;;;;5001489;28;20061;-55
2023/09/10 08:52:14;;;;;;;13.57;6.65;;;24.40;61.40;;;;;;5001483;28;20061;-55
2023/09/10 08:54:42;;;;;;;9.55;6.22;;;24.50;61.20;;;;;;5003453;28;20057;-55
2023/09/10 08:57:11;;;;;;;16.83;6.63;;;24.60;61.20;;;;;;5000917;28;20061;-53
2023/09/10 08:59:39;;;;;;;13.40;6.88;;;24.60;60.90;;;;;;5000896;28;20505;-53
2023/09/10 09:02:10;;;;;;;13.85;6.75;;;24.70;60.80;;;;;;4997391;28;20464;-52
2023/09/10 09:04:38;;;;;;;11.90;5.88;;;24.70;60.30;;;;;;4998842;28;20060;-54
2023/09/10 09:07:09;;;;;;;9.75;6.47;;;24.80;60.20;;;;;;5002018;28;20053;-48
2023/09/10 09:09:41;;;;;;;12.05;5.75;;;24.90;60.70;;;;;;5000565;28;20405;-51
2023/09/10 09:12:10;;;;;;;13.20;6.63;;;24.90;59.60;;;;;;5000519;28;20061;-49
2023/09/10 09:14:42;;;;;;;15.43;5.57;;;25.00;59.40;;;;;;5000155;28;21266;-47
2023/09/10 09:17:13;;;;;;;10.52;6.07;;;25.00;59.00;;;;;;5000942;28;20414;-52
2023/09/10 09:19:44;;;;;;;11.63;5.30;;;25.10;58.40;;;;;;5001138;28;20046;-49
2023/09/10 09:22:14;;;;;;;8.32;5.30;;;25.20;57.90;;;;;;5002376;28;20056;-50
2023/09/10 09:24:42;;;;;;;14.90;5.65;;;25.20;57.90;;;;;;4997647;28;20061;-49
2023/09/10 09:27:12;;;;;;;9.43;5.32;;;25.30;57.90;;;;;;4997168;28;20050;-51
2023/09/10 09:29:40;;;;;;;10.48;4.80;;;25.30;57.70;;;;;;5001356;28;20417;-49
2023/09/10 09:32:07;;;;;;;10.80;5.43;;;25.40;57.70;;;;;;4999507;28;20540;-49
2023/09/10 09:34:34;;;;;;;10.60;5.00;;;25.40;57.50;;;;;;5000506;28;20481;-48
2023/09/10 09:37:03;;;;;;;10.73;4.97;;;25.50;57.30;;;;;;4996951;28;20053;-48
2023/09/10 09:39:31;;;;;;;9.48;4.32;;;25.60;56.80;;;;;;5003004;28;20053;-54
2023/09/10 09:41:58;;;;;;;12.45;5.10;;;25.60;56.60;;;;;;5000939;28;20498;-46
2023/09/10 09:44:26;;;;;;;13.70;4.88;;;25.70;56.20;;;;;;4997389;28;20054;-51
2023/09/10 09:46:58;;;;;;;18.10;5.15;;;25.80;56.10;;;;;;4999923;28;20069;-50
2023/09/10 09:49:26;;;;;;;16.15;4.70;;;25.80;55.40;;;;;;5001326;28;20066;-53
2023/09/10 09:51:53;;;;;;;14.43;4.63;;;25.80;55.30;;;;;;4999333;28;20049;-49
2023/09/10 09:54:24;;;;;;;10.52;4.72;;;25.90;55.70;;;;;;5002160;28;20050;-46
2023/09/10 09:56:52;;;;;;;12.75;4.55;;;26.00;54.90;;;;;;5001457;28;20486;-48
2023/09/10 09:59:19;;;;;;;12.25;4.95;;;26.00;54.70;;;;;;5000292;28;20409;-54
2023/09/10 10:01:46;;;;;;;9.90;4.85;;;26.10;54.70;;;;;;4998599;28;20053;-49
2023/09/10 10:04:15;;;;;;;10.25;4.82;;;26.20;54.40;;;;;;4999387;28;20413;-51
2023/09/10 10:06:43;;;;;;;9.15;4.53;;;26.20;54.20;;;;;;4995905;28;20050;-53
2023/09/10 10:09:10;;;;;;;14.68;4.60;;;26.30;54.30;;;;;;5000053;28;20421;-47
2023/09/10 10:11:39;;;;;;;10.95;4.03;;;26.30;53.90;;;;;;5002313;28;20058;-52
2023/09/10 10:14:08;;;;;;;6.45;3.80;;;26.40;53.90;;;;;;4998642;28;20058;-47
2023/09/10 10:16:35;;;;;;;10.57;4.03;;;26.50;54.30;;;;;;4998709;28;20061;-51
2023/09/10 10:19:04;;;;;;;9.40;4.28;;;26.50;53.20;;;;;;5003588;28;20057;-54
2023/09/10 10:21:31;;;;;;;12.95;4.00;;;26.60;52.80;;;;;;4995892;28;20428;-48
2023/09/10 10:23:59;;;;;;;9.30;4.43;;;26.60;53.00;;;;;;4999633;28;20061;-46
2023/09/10 10:26:26;;;;;;;10.07;3.78;;;26.70;53.00;;;;;;4998648;28;20050;-45
2023/09/10 10:32:23;;;;;;;7.75;4.32;;;26.80;52.90;;;;;;4998536;28;20044;-46
2023/09/10 10:34:56;;;;;;;17.50;4.63;;;26.80;52.90;;;;;;4998603;28;20536;-53
2023/09/10 10:37:29;;;;;;;12.73;4.97;;;26.90;52.90;;;;;;4999645;28;20050;-46
2023/09/10 10:40:05;;;;;;;15.00;4.57;;;27.00;53.00;;;;;;4998521;28;20505;-48
2023/09/10 10:42:38;;;;;;;9.68;3.85;;;27.00;52.80;;;;;;4996062;28;20105;-46
2023/09/10 10:45:07;;;;;;;11.90;4.40;;;27.10;52.90;;;;;;4999087;28;20410;-48
2023/09/10 10:47:39;;;;;;;7.32;4.25;;;27.10;52.40;;;;;;4997128;28;20513;-45
2023/09/10 10:50:10;;;;;;;10.52;4.22;;;27.20;52.20;;;;;;4995971;28;20478;-56
2023/09/10 10:52:44;;;;;;;9.00;4.13;;;27.20;52.10;;;;;;4999213;28;20054;-56
2023/09/10 10:55:13;;;;;;;8.63;4.20;;;27.30;52.00;;;;;;4998144;28;20058;-56
2023/09/10 10:57:40;;;;;;;16.52;8.52;;;27.30;52.30;;;;;;5000144;28;20520;-56
2023/09/10 11:00:10;;;;;;;15.85;8.60;;;27.40;52.10;;;;;;4998039;28;20065;-57
2023/09/10 11:02:39;;;;;;;9.65;5.28;;;27.50;52.30;;;;;;4997992;28;20749;-56
2023/09/10 11:05:08;;;;;;;13.23;4.82;;;27.60;52.40;;;;;;4998167;28;20096;-56
2023/09/10 11:07:35;;;;;;;8.73;4.53;;;27.60;51.80;;;;;;4998382;28;20058;-57
2023/09/10 11:10:41;;;;;;;9.73;4.50;;;27.70;51.70;;;;;;4998211;28;20062;-55
2023/09/10 11:13:09;;;;;;;11.65;4.25;;;27.70;51.40;;;;;;4998161;28;20058;-55
2023/09/10 11:15:36;;;;;;;24.67;12.50;;;27.80;51.60;;;;;;4997405;28;20487;-57
2023/09/10 11:18:41;;;;;;;18.58;9.75;;;27.90;51.80;;;;;;4995636;28;20486;-54
2023/09/10 11:21:10;;;;;;;13.10;5.90;;;28.00;51.50;;;;;;4997445;28;20065;-56
2023/09/10 11:23:39;;;;;;;21.10;9.75;;;28.00;51.30;;;;;;4997176;28;20065;-55
2023/09/10 11:26:29;;;;;;;14.82;7.20;;;28.20;51.30;;;;;;4998412;28;20057;-57
2023/09/10 11:28:57;;;;;;;10.23;5.18;;;28.30;51.10;;;;;;4998507;28;20053;-55
2023/09/10 11:31:40;;;;;;;10.40;4.30;;;28.30;51.00;;;;;;4999283;28;20076;-55
2023/09/10 11:34:38;;;;;;;6.57;4.03;;;28.40;50.30;;;;;;4997723;28;20060;-57
2023/09/10 11:37:06;;;;;;;9.23;4.45;;;28.50;50.30;;;;;;4993213;28;20056;-56
2023/09/10 11:39:36;;;;;;;9.73;4.43;;;28.60;50.50;;;;;;4994690;28;20429;-55
2023/09/10 11:42:09;;;;;;;6.97;3.70;;;28.60;50.40;;;;;;4994408;28;20065;-55
2023/09/10 11:44:37;;;;;;;11.80;4.60;;;28.70;50.50;;;;;;4994998;28;20068;-56
2023/09/10 11:47:05;;;;;;;14.10;4.22;;;28.70;50.40;;;;;;4996582;28;20057;-56
2023/09/10 11:49:34;;;;;;;11.85;4.63;;;28.80;50.10;;;;;;4997518;28;20061;-58
2023/09/10 11:52:04;;;;;;;10.77;4.30;;;28.80;49.90;;;;;;4997224;28;20057;-58
2023/09/10 11:54:32;;;;;;;10.20;4.40;;;28.80;49.70;;;;;;4998033;28;20398;-58
2023/09/10 11:57:00;;;;;;;8.68;4.47;;;28.90;49.60;;;;;;4996927;28;20049;-57
2023/09/10 11:59:30;;;;;;;8.35;4.00;;;28.90;49.50;;;;;;4996386;28;20052;-54
2023/09/10 12:01:58;;;;;;;27.70;15.50;;;28.90;49.50;;;;;;4994147;28;20054;-57
2023/09/10 12:04:29;;;;;;;11.25;5.32;;;29.00;49.20;;;;;;4996473;28;20064;-56
2023/09/10 12:06:56;;;;;;;8.65;4.32;;;29.00;48.30;;;;;;4996209;28;20425;-55
2023/09/10 12:09:28;;;;;;;16.25;4.88;;;29.00;47.90;;;;;;4996004;28;20410;-56
2023/09/10 12:11:59;;;;;;;11.77;4.72;;;29.10;48.10;;;;;;4997063;28;20073;-56
2023/09/10 12:14:26;;;;;;;14.10;4.80;;;29.10;48.70;;;;;;5001478;28;20493;-55
2023/09/10 12:16:54;;;;;;;7.28;4.53;;;29.20;48.60;;;;;;4997757;28;20654;-57
2023/09/10 12:19:21;;;;;;;16.40;5.30;;;29.30;48.90;;;;;;4999588;28;20049;-58
2023/09/10 12:21:51;;;;;;;13.02;5.35;;;29.30;48.40;;;;;;4998608;28;20054;-59
2023/09/10 12:24:18;;;;;;;17.55;5.22;;;29.40;47.70;;;;;;4999676;28;20506;-57
2023/09/10 12:26:47;;;;;;;14.50;4.50;;;29.40;47.60;;;;;;4997815;28;20064;-55
2023/09/10 12:29:14;;;;;;;8.90;4.65;;;29.50;47.50;;;;;;5000017;28;20058;-57
2023/09/10 12:31:42;;;;;;;9.73;5.07;;;29.60;47.90;;;;;;4998489;28;20409;-56
2023/09/10 12:34:14;;;;;;;9.85;4.80;;;29.60;48.20;;;;;;4998515;28;20058;-57
2023/09/10 12:36:41;;;;;;;16.15;5.80;;;29.70;46.90;;;;;;4996680;28;20054;-57
2023/09/10 12:39:18;;;;;;;18.25;4.97;;;29.70;46.80;;;;;;4998695;28;20054;-58
2023/09/10 12:41:50;;;;;;;11.23;4.50;;;29.80;46.40;;;;;;4999728;28;20065;-56
2023/09/10 12:44:17;;;;;;;11.35;4.82;;;29.90;46.40;;;;;;4997852;28;20061;-56
2023/09/10 12:46:45;;;;;;;10.52;4.95;;;29.90;46.90;;;;;;4993685;28;20508;-58
2023/09/10 12:49:13;;;;;;;9.57;4.25;;;30.00;47.30;;;;;;4998130;28;20058;-56
2023/09/10 12:51:41;;;;;;;12.18;4.15;;;30.00;47.30;;;;;;4995375;28;20072;-56
2023/09/10 12:54:08;;;;;;;8.73;4.40;;;30.10;47.00;;;;;;4994915;28;20504;-56
2023/09/10 12:56:38;;;;;;;12.27;4.72;;;30.10;46.60;;;;;;4997937;28;20394;-58